sensor_id;sensor_type;location;lat;lon;timestamp;temperature;humidity
21682;DHT22;11002;48.256;10.084;2022-11-03T00:01:09;18.20;44.30
21682;DHT22;11002;48.256;10.084;2022-11-03T00:03:37;18.20;44.30
21682;DHT22;11002;48.256;10.084;2022-11-03T00:06:05;18.20;44.40
21682;DHT22;11002;48.256;10.084;2022-11-03T00:08:35;18.20;44.30
21682;DHT22;11002;48.256;10.084;2022-11-03T00:11:04;18.20;44.40
21682;DHT22;11002;48.256;10.084;2022-11-03T00:13:32;18.20;44.40
21682;DHT22;11002;48.256;10.084;2022-11-03T00:15:59;18.20;44.40
21682;DHT22;11002;48.256;10.084;2022-11-03T00:18:27;18.20;44.40
21682;DHT22;11002;48.256;10.084;2022-11-03T00:20:59;18.20;44.40
21682;DHT22;11002;48.256;10.084;2022-11-03T00:23:28;18.20;44.40
21682;DHT22;11002;48.256;10.084;2022-11-03T00:26:03;18.20;44.40
21682;DHT22;11002;48.256;10.084;2022-11-03T00:28:31;18.20;44.40
21682;DHT22;11002;48.256;10.084;2022-11-03T00:31:00;18.20;44.40
21682;DHT22;11002;48.256;10.084;2022-11-03T00:33:30;18.20;44.40
21682;DHT22;11002;48.256;10.084;2022-11-03T00:36:00;18.20;44.40
21682;DHT22;11002;48.256;10.084;2022-11-03T00:38:27;18.20;44.40
21682;DHT22;11002;48.256;10.084;2022-11-03T00:40:56;18.20;44.40
21682;DHT22;11002;48.256;10.084;2022-11-03T00:43:24;18.20;44.40
21682;DHT22;11002;48.256;10.084;2022-11-03T00:45:52;18.20;44.40
21682;DHT22;11002;48.256;10.084;2022-11-03T00:48:20;18.20;44.30
21682;DHT22;11002;48.256;10.084;2022-11-03T00:51:03;18.20;44.30
21682;DHT22;11002;48.256;10.084;2022-11-03T00:53:32;18.20;44.40
21682;DHT22;11002;48.256;10.084;2022-11-03T00:55:59;18.20;44.30
21682;DHT22;11002;48.256;10.084;2022-11-03T00:58:27;18.10;44.30
21682;DHT22;11002;48.256;10.084;2022-11-03T01:00:59;18.10;44.30
21682;DHT22;11002;48.256;10.084;2022-11-03T01:03:27;18.10;44.30
21682;DHT22;11002;48.256;10.084;2022-11-03T01:05:54;18.10;44.30
21682;DHT22;11002;48.256;10.084;2022-11-03T01:08:40;18.10;44.30
21682;DHT22;11002;48.256;10.084;2022-11-03T01:11:09;18.10;44.30
21682;DHT22;11002;48.256;10.084;2022-11-03T01:13:54;18.20;44.40
21682;DHT22;11002;48.256;10.084;2022-11-03T01:16:22;18.10;44.30
21682;DHT22;11002;48.256;10.084;2022-11-03T01:18:50;18.10;44.20
21682;DHT22;11002;48.256;10.084;2022-11-03T01:21:17;18.10;44.20
21682;DHT22;11002;48.256;10.084;2022-11-03T01:23:47;18.10;44.20
21682;DHT22;11002;48.256;10.084;2022-11-03T01:26:14;18.10;44.20
21682;DHT22;11002;48.256;10.084;2022-11-03T01:28:43;18.20;44.30
21682;DHT22;11002;48.256;10.084;2022-11-03T01:31:13;18.10;44.20
21682;DHT22;11002;48.256;10.084;2022-11-03T01:33:41;18.10;44.20
21682;DHT22;11002;48.256;10.084;2022-11-03T01:36:11;18.10;44.30
21682;DHT22;11002;48.256;10.084;2022-11-03T01:38:39;18.10;44.30
21682;DHT22;11002;48.256;10.084;2022-11-03T01:41:10;18.10;44.20
21682;DHT22;11002;48.256;10.084;2022-11-03T01:43:39;18.10;44.90
21682;DHT22;11002;48.256;10.084;2022-11-03T01:46:14;18.10;44.20
21682;DHT22;11002;48.256;10.084;2022-11-03T01:48:46;18.10;44.10
21682;DHT22;11002;48.256;10.084;2022-11-03T01:51:18;18.10;44.20
21682;DHT22;11002;48.256;10.084;2022-11-03T01:53:47;18.10;44.20
21682;DHT22;11002;48.256;10.084;2022-11-03T01:56:19;18.10;44.10
21682;DHT22;11002;48.256;10.084;2022-11-03T01:58:49;18.10;44.20
21682;DHT22;11002;48.256;10.084;2022-11-03T02:01:18;18.10;44.20
21682;DHT22;11002;48.256;10.084;2022-11-03T02:03:49;18.10;44.20
21682;DHT22;11002;48.256;10.084;2022-11-03T02:06:19;18.10;44.20
21682;DHT22;11002;48.256;10.084;2022-11-03T02:08:52;18.10;44.20
21682;DHT22;11002;48.256;10.084;2022-11-03T02:11:22;18.10;44.10
21682;DHT22;11002;48.256;10.084;2022-11-03T02:14:03;18.10;44.20
21682;DHT22;11002;48.256;10.084;2022-11-03T02:16:31;18.10;44.20
21682;DHT22;11002;48.256;10.084;2022-11-03T02:19:00;18.10;44.20
21682;DHT22;11002;48.256;10.084;2022-11-03T02:21:32;18.10;44.20
21682;DHT22;11002;48.256;10.084;2022-11-03T02:24:08;18.10;44.10
21682;DHT22;11002;48.256;10.084;2022-11-03T02:26:40;18.10;44.00
21682;DHT22;11002;48.256;10.084;2022-11-03T02:29:09;18.10;44.10
21682;DHT22;11002;48.256;10.084;2022-11-03T02:31:40;18.10;44.00
21682;DHT22;11002;48.256;10.084;2022-11-03T02:34:13;18.10;44.10
21682;DHT22;11002;48.256;10.084;2022-11-03T02:36:45;18.10;44.10
21682;DHT22;11002;48.256;10.084;2022-11-03T02:39:16;18.10;44.20
21682;DHT22;11002;48.256;10.084;2022-11-03T02:41:48;18.10;44.20
21682;DHT22;11002;48.256;10.084;2022-11-03T02:44:18;18.10;44.10
21682;DHT22;11002;48.256;10.084;2022-11-03T02:46:47;18.10;44.10
21682;DHT22;11002;48.256;10.084;2022-11-03T02:49:15;18.10;44.10
21682;DHT22;11002;48.256;10.084;2022-11-03T02:51:43;18.10;44.00
21682;DHT22;11002;48.256;10.084;2022-11-03T02:54:15;18.10;44.10
21682;DHT22;11002;48.256;10.084;2022-11-03T02:56:49;18.10;44.00
21682;DHT22;11002;48.256;10.084;2022-11-03T02:59:21;18.10;44.00
21682;DHT22;11002;48.256;10.084;2022-11-03T03:01:53;18.10;44.00
21682;DHT22;11002;48.256;10.084;2022-11-03T03:04:27;18.10;44.10
21682;DHT22;11002;48.256;10.084;2022-11-03T03:06:59;18.10;44.10
21682;DHT22;11002;48.256;10.084;2022-11-03T03:09:33;18.10;44.00
21682;DHT22;11002;48.256;10.084;2022-11-03T03:12:05;18.10;44.00
21682;DHT22;11002;48.256;10.084;2022-11-03T03:14:36;18.10;44.00
21682;DHT22;11002;48.256;10.084;2022-11-03T03:17:11;18.10;43.90
21682;DHT22;11002;48.256;10.084;2022-11-03T03:19:48;18.10;43.90
21682;DHT22;11002;48.256;10.084;2022-11-03T03:22:22;18.10;43.90
21682;DHT22;11002;48.256;10.084;2022-11-03T03:24:54;18.10;44.00
21682;DHT22;11002;48.256;10.084;2022-11-03T03:27:27;18.10;44.10
21682;DHT22;11002;48.256;10.084;2022-11-03T03:29:57;18.10;44.00
21682;DHT22;11002;48.256;10.084;2022-11-03T03:32:27;18.10;44.10
21682;DHT22;11002;48.256;10.084;2022-11-03T03:34:57;18.10;44.10
21682;DHT22;11002;48.256;10.084;2022-11-03T03:37:27;18.10;44.00
21682;DHT22;11002;48.256;10.084;2022-11-03T03:39:57;18.10;44.10
21682;DHT22;11002;48.256;10.084;2022-11-03T03:42:29;18.10;44.80
21682;DHT22;11002;48.256;10.084;2022-11-03T03:44:59;18.10;44.10
21682;DHT22;11002;48.256;10.084;2022-11-03T03:47:28;18.10;44.10
21682;DHT22;11002;48.256;10.084;2022-11-03T03:49:57;18.10;44.10
21682;DHT22;11002;48.256;10.084;2022-11-03T03:52:24;18.00;44.00
21682;DHT22;11002;48.256;10.084;2022-11-03T03:54:53;18.10;44.00
21682;DHT22;11002;48.256;10.084;2022-11-03T03:57:23;18.00;43.90
21682;DHT22;11002;48.256;10.084;2022-11-03T03:59:52;18.00;44.00
21682;DHT22;11002;48.256;10.084;2022-11-03T04:02:19;18.00;44.00
21682;DHT22;11002;48.256;10.084;2022-11-03T04:04:46;18.10;44.10
21682;DHT22;11002;48.256;10.084;2022-11-03T04:07:14;18.00;44.00
21682;DHT22;11002;48.256;10.084;2022-11-03T04:09:58;18.00;44.00
21682;DHT22;11002;48.256;10.084;2022-11-03T04:12:26;18.00;44.00
21682;DHT22;11002;48.256;10.084;2022-11-03T04:15:17;18.00;43.80
21682;DHT22;11002;48.256;10.084;2022-11-03T04:18:02;18.00;43.80
21682;DHT22;11002;48.256;10.084;2022-11-03T04:20:46;18.00;43.80
21682;DHT22;11002;48.256;10.084;2022-11-03T04:23:31;18.00;43.80
21682;DHT22;11002;48.256;10.084;2022-11-03T04:25:59;18.00;43.80
21682;DHT22;11002;48.256;10.084;2022-11-03T04:28:27;18.00;43.80
21682;DHT22;11002;48.256;10.084;2022-11-03T04:30:58;18.00;44.60
21682;DHT22;11002;48.256;10.084;2022-11-03T04:33:25;18.00;43.90
21682;DHT22;11002;48.256;10.084;2022-11-03T04:35:57;18.00;43.80
21682;DHT22;11002;48.256;10.084;2022-11-03T04:38:26;18.00;43.80
21682;DHT22;11002;48.256;10.084;2022-11-03T04:40:55;18.00;43.80
21682;DHT22;11002;48.256;10.084;2022-11-03T04:43:29;18.00;43.80
21682;DHT22;11002;48.256;10.084;2022-11-03T04:45:58;18.00;43.80
21682;DHT22;11002;48.256;10.084;2022-11-03T04:48:27;18.00;43.80
21682;DHT22;11002;48.256;10.084;2022-11-03T04:50:57;18.00;43.60
21682;DHT22;11002;48.256;10.084;2022-11-03T04:53:28;18.00;43.60
21682;DHT22;11002;48.256;10.084;2022-11-03T04:55:56;18.10;43.70
21682;DHT22;11002;48.256;10.084;2022-11-03T04:58:26;18.10;43.70
21682;DHT22;11002;48.256;10.084;2022-11-03T05:00:58;18.10;43.70
21682;DHT22;11002;48.256;10.084;2022-11-03T05:03:27;18.00;43.50
21682;DHT22;11002;48.256;10.084;2022-11-03T05:05:56;18.10;43.60
21682;DHT22;11002;48.256;10.084;2022-11-03T05:08:24;18.00;43.40
21682;DHT22;11002;48.256;10.084;2022-11-03T05:10:51;18.00;43.40
21682;DHT22;11002;48.256;10.084;2022-11-03T05:13:22;18.10;43.50
21682;DHT22;11002;48.256;10.084;2022-11-03T05:15:52;18.00;43.40
21682;DHT22;11002;48.256;10.084;2022-11-03T05:18:25;18.10;43.50
21682;DHT22;11002;48.256;10.084;2022-11-03T05:20:55;18.10;43.40
21682;DHT22;11002;48.256;10.084;2022-11-03T05:23:22;18.10;43.40
21682;DHT22;11002;48.256;10.084;2022-11-03T05:25:52;18.10;43.30
21682;DHT22;11002;48.256;10.084;2022-11-03T05:28:22;18.10;43.30
21682;DHT22;11002;48.256;10.084;2022-11-03T05:30:50;18.10;43.30
21682;DHT22;11002;48.256;10.084;2022-11-03T05:33:21;18.10;43.30
21682;DHT22;11002;48.256;10.084;2022-11-03T05:35:49;18.10;43.30
21682;DHT22;11002;48.256;10.084;2022-11-03T05:38:18;18.10;43.20
21682;DHT22;11002;48.256;10.084;2022-11-03T05:40:50;18.10;43.20
21682;DHT22;11002;48.256;10.084;2022-11-03T05:43:19;18.10;43.20
21682;DHT22;11002;48.256;10.084;2022-11-03T05:45:47;18.10;43.20
21682;DHT22;11002;48.256;10.084;2022-11-03T05:48:18;18.10;43.20
21682;DHT22;11002;48.256;10.084;2022-11-03T05:50:50;18.10;43.20
21682;DHT22;11002;48.256;10.084;2022-11-03T05:53:29;18.10;43.30
21682;DHT22;11002;48.256;10.084;2022-11-03T05:55:59;18.10;43.50
21682;DHT22;11002;48.256;10.084;2022-11-03T05:58:30;18.10;43.20
21682;DHT22;11002;48.256;10.084;2022-11-03T06:00:59;18.10;43.20
21682;DHT22;11002;48.256;10.084;2022-11-03T06:03:33;18.10;43.20
21682;DHT22;11002;48.256;10.084;2022-11-03T06:06:12;18.10;43.20
21682;DHT22;11002;48.256;10.084;2022-11-03T06:08:42;18.10;43.10
21682;DHT22;11002;48.256;10.084;2022-11-03T06:11:19;18.10;43.00
21682;DHT22;11002;48.256;10.084;2022-11-03T06:13:47;18.10;43.00
21682;DHT22;11002;48.256;10.084;2022-11-03T06:16:31;18.10;43.00
21682;DHT22;11002;48.256;10.084;2022-11-03T06:19:15;18.10;43.00
21682;DHT22;11002;48.256;10.084;2022-11-03T06:21:47;18.10;43.00
21682;DHT22;11002;48.256;10.084;2022-11-03T06:24:15;18.10;43.00
21682;DHT22;11002;48.256;10.084;2022-11-03T06:26:45;18.10;42.90
21682;DHT22;11002;48.256;10.084;2022-11-03T06:29:15;18.10;42.90
21682;DHT22;11002;48.256;10.084;2022-11-03T06:31:45;18.10;42.90
21682;DHT22;11002;48.256;10.084;2022-11-03T06:34:30;18.10;42.90
21682;DHT22;11002;48.256;10.084;2022-11-03T06:37:09;18.10;43.00
21682;DHT22;11002;48.256;10.084;2022-11-03T06:39:38;18.10;43.00
21682;DHT22;11002;48.256;10.084;2022-11-03T06:42:11;18.10;43.00
21682;DHT22;11002;48.256;10.084;2022-11-03T06:44:40;18.10;43.00
21682;DHT22;11002;48.256;10.084;2022-11-03T06:47:19;18.10;43.00
21682;DHT22;11002;48.256;10.084;2022-11-03T06:49:47;18.10;42.90
21682;DHT22;11002;48.256;10.084;2022-11-03T06:52:24;18.10;42.90
21682;DHT22;11002;48.256;10.084;2022-11-03T06:54:58;18.10;43.00
21682;DHT22;11002;48.256;10.084;2022-11-03T06:57:26;18.10;43.00
21682;DHT22;11002;48.256;10.084;2022-11-03T06:59:54;18.10;42.90
21682;DHT22;11002;48.256;10.084;2022-11-03T07:02:42;18.10;42.90
21682;DHT22;11002;48.256;10.084;2022-11-03T07:05:19;18.10;42.90
21682;DHT22;11002;48.256;10.084;2022-11-03T07:07:48;18.10;42.90
21682;DHT22;11002;48.256;10.084;2022-11-03T07:10:16;18.10;42.90
21682;DHT22;11002;48.256;10.084;2022-11-03T07:12:44;18.10;42.90
21682;DHT22;11002;48.256;10.084;2022-11-03T07:15:22;18.10;42.90
21682;DHT22;11002;48.256;10.084;2022-11-03T07:17:50;18.10;42.90
21682;DHT22;11002;48.256;10.084;2022-11-03T07:20:18;18.10;42.80
21682;DHT22;11002;48.256;10.084;2022-11-03T07:22:48;18.10;42.90
21682;DHT22;11002;48.256;10.084;2022-11-03T07:25:18;18.10;42.90
21682;DHT22;11002;48.256;10.084;2022-11-03T07:27:47;18.10;42.90
21682;DHT22;11002;48.256;10.084;2022-11-03T07:30:19;18.10;42.90
21682;DHT22;11002;48.256;10.084;2022-11-03T07:32:48;18.10;42.90
21682;DHT22;11002;48.256;10.084;2022-11-03T07:35:31;18.10;42.90
21682;DHT22;11002;48.256;10.084;2022-11-03T07:38:08;18.10;42.90
21682;DHT22;11002;48.256;10.084;2022-11-03T07:40:37;18.10;42.90
21682;DHT22;11002;48.256;10.084;2022-11-03T07:43:16;18.10;42.90
21682;DHT22;11002;48.256;10.084;2022-11-03T07:45:48;18.10;42.90
21682;DHT22;11002;48.256;10.084;2022-11-03T07:48:21;18.10;42.90
21682;DHT22;11002;48.256;10.084;2022-11-03T07:50:50;18.10;42.80
21682;DHT22;11002;48.256;10.084;2022-11-03T07:53:23;18.10;42.80
21682;DHT22;11002;48.256;10.084;2022-11-03T07:55:53;18.10;42.90
21682;DHT22;11002;48.256;10.084;2022-11-03T07:58:24;18.10;42.90
21682;DHT22;11002;48.256;10.084;2022-11-03T08:00:54;18.10;42.90
21682;DHT22;11002;48.256;10.084;2022-11-03T08:03:41;18.10;42.90
21682;DHT22;11002;48.256;10.084;2022-11-03T08:06:09;18.10;42.80
21682;DHT22;11002;48.256;10.084;2022-11-03T08:08:38;18.10;42.80
21682;DHT22;11002;48.256;10.084;2022-11-03T08:11:06;18.10;42.80
21682;DHT22;11002;48.256;10.084;2022-11-03T08:13:33;18.10;42.70
21682;DHT22;11002;48.256;10.084;2022-11-03T08:16:00;18.10;42.70
21682;DHT22;11002;48.256;10.084;2022-11-03T08:18:28;18.10;42.80
21682;DHT22;11002;48.256;10.084;2022-11-03T08:20:55;18.10;42.70
21682;DHT22;11002;48.256;10.084;2022-11-03T08:23:23;18.10;42.60
21682;DHT22;11002;48.256;10.084;2022-11-03T08:25:52;18.10;42.60
21682;DHT22;11002;48.256;10.084;2022-11-03T08:28:19;18.10;42.60
21682;DHT22;11002;48.256;10.084;2022-11-03T08:30:46;18.10;42.60
21682;DHT22;11002;48.256;10.084;2022-11-03T08:33:13;18.10;42.60
21682;DHT22;11002;48.256;10.084;2022-11-03T08:35:41;18.10;42.50
21682;DHT22;11002;48.256;10.084;2022-11-03T08:38:08;18.10;42.50
21682;DHT22;11002;48.256;10.084;2022-11-03T08:40:35;18.10;42.40
21682;DHT22;11002;48.256;10.084;2022-11-03T08:43:04;18.10;42.50
21682;DHT22;11002;48.256;10.084;2022-11-03T08:45:32;18.20;42.50
21682;DHT22;11002;48.256;10.084;2022-11-03T08:47:59;18.10;42.50
21682;DHT22;11002;48.256;10.084;2022-11-03T08:50:26;18.10;43.10
21682;DHT22;11002;48.256;10.084;2022-11-03T08:52:53;18.20;42.50
21682;DHT22;11002;48.256;10.084;2022-11-03T08:55:21;18.20;42.50
21682;DHT22;11002;48.256;10.084;2022-11-03T08:57:48;18.10;42.40
21682;DHT22;11002;48.256;10.084;2022-11-03T09:00:17;18.20;42.50
21682;DHT22;11002;48.256;10.084;2022-11-03T09:02:45;18.20;42.50
21682;DHT22;11002;48.256;10.084;2022-11-03T09:05:12;18.20;42.50
21682;DHT22;11002;48.256;10.084;2022-11-03T09:07:40;18.10;42.40
21682;DHT22;11002;48.256;10.084;2022-11-03T09:10:09;18.20;42.60
21682;DHT22;11002;48.256;10.084;2022-11-03T09:12:37;18.20;42.50
21682;DHT22;11002;48.256;10.084;2022-11-03T09:15:05;18.20;42.50
21682;DHT22;11002;48.256;10.084;2022-11-03T09:17:34;18.20;42.50
21682;DHT22;11002;48.256;10.084;2022-11-03T09:20:01;18.10;42.50
21682;DHT22;11002;48.256;10.084;2022-11-03T09:22:29;18.20;42.60
21682;DHT22;11002;48.256;10.084;2022-11-03T09:24:56;18.10;42.60
21682;DHT22;11002;48.256;10.084;2022-11-03T09:27:23;18.10;42.50
21682;DHT22;11002;48.256;10.084;2022-11-03T09:29:51;18.20;42.50
21682;DHT22;11002;48.256;10.084;2022-11-03T09:32:18;18.20;42.50
21682;DHT22;11002;48.256;10.084;2022-11-03T09:34:47;18.20;42.50
21682;DHT22;11002;48.256;10.084;2022-11-03T09:37:14;18.20;42.50
21682;DHT22;11002;48.256;10.084;2022-11-03T09:39:42;18.10;42.40
21682;DHT22;11002;48.256;10.084;2022-11-03T09:42:10;18.10;42.40
21682;DHT22;11002;48.256;10.084;2022-11-03T09:44:38;18.20;42.50
21682;DHT22;11002;48.256;10.084;2022-11-03T09:47:05;18.10;42.50
21682;DHT22;11002;48.256;10.084;2022-11-03T09:49:33;18.10;42.50
21682;DHT22;11002;48.256;10.084;2022-11-03T09:52:04;18.10;42.50
21682;DHT22;11002;48.256;10.084;2022-11-03T09:54:31;18.10;42.50
21682;DHT22;11002;48.256;10.084;2022-11-03T09:57:08;18.10;42.50
21682;DHT22;11002;48.256;10.084;2022-11-03T09:59:37;18.10;42.50
21682;DHT22;11002;48.256;10.084;2022-11-03T10:02:13;18.10;42.90
21682;DHT22;11002;48.256;10.084;2022-11-03T10:04:42;18.10;42.60
21682;DHT22;11002;48.256;10.084;2022-11-03T10:07:10;18.10;42.60
21682;DHT22;11002;48.256;10.084;2022-11-03T10:09:42;18.10;42.60
21682;DHT22;11002;48.256;10.084;2022-11-03T10:12:11;18.10;42.60
21682;DHT22;11002;48.256;10.084;2022-11-03T10:14:39;18.10;42.60
21682;DHT22;11002;48.256;10.084;2022-11-03T10:17:12;18.10;42.60
21682;DHT22;11002;48.256;10.084;2022-11-03T10:19:40;18.10;42.70
21682;DHT22;11002;48.256;10.084;2022-11-03T10:22:09;18.10;42.70
21682;DHT22;11002;48.256;10.084;2022-11-03T10:24:37;18.10;42.70
21682;DHT22;11002;48.256;10.084;2022-11-03T10:27:19;18.10;42.70
21682;DHT22;11002;48.256;10.084;2022-11-03T10:30:03;18.10;42.80
21682;DHT22;11002;48.256;10.084;2022-11-03T10:32:32;18.10;42.70
21682;DHT22;11002;48.256;10.084;2022-11-03T10:35:01;18.10;42.70
21682;DHT22;11002;48.256;10.084;2022-11-03T10:37:31;18.10;42.80
21682;DHT22;11002;48.256;10.084;2022-11-03T10:39:58;18.10;42.70
21682;DHT22;11002;48.256;10.084;2022-11-03T10:42:27;18.10;42.80
21682;DHT22;11002;48.256;10.084;2022-11-03T10:45:09;18.10;42.80
21682;DHT22;11002;48.256;10.084;2022-11-03T10:47:37;18.10;42.80
21682;DHT22;11002;48.256;10.084;2022-11-03T10:50:19;18.10;42.80
21682;DHT22;11002;48.256;10.084;2022-11-03T10:52:48;18.10;42.80
21682;DHT22;11002;48.256;10.084;2022-11-03T10:55:17;18.10;42.80
21682;DHT22;11002;48.256;10.084;2022-11-03T10:57:45;18.10;42.80
21682;DHT22;11002;48.256;10.084;2022-11-03T11:00:14;18.10;42.80
21682;DHT22;11002;48.256;10.084;2022-11-03T11:02:42;18.10;42.80
21682;DHT22;11002;48.256;10.084;2022-11-03T11:05:13;18.10;42.80
21682;DHT22;11002;48.256;10.084;2022-11-03T11:07:42;18.10;42.80
21682;DHT22;11002;48.256;10.084;2022-11-03T11:10:16;18.10;42.80
21682;DHT22;11002;48.256;10.084;2022-11-03T11:13:03;18.10;42.80
21682;DHT22;11002;48.256;10.084;2022-11-03T11:15:37;18.10;42.80
21682;DHT22;11002;48.256;10.084;2022-11-03T11:18:05;18.10;42.80
21682;DHT22;11002;48.256;10.084;2022-11-03T11:20:37;18.10;42.80
21682;DHT22;11002;48.256;10.084;2022-11-03T11:35:10;18.10;42.80
21682;DHT22;11002;48.256;10.084;2022-11-03T11:37:38;18.10;42.80
21682;DHT22;11002;48.256;10.084;2022-11-03T11:40:11;18.10;42.80
21682;DHT22;11002;48.256;10.084;2022-11-03T11:46:31;18.10;42.90
21682;DHT22;11002;48.256;10.084;2022-11-03T11:49:17;18.10;42.80
21682;DHT22;11002;48.256;10.084;2022-11-03T11:51:45;18.10;42.80
21682;DHT22;11002;48.256;10.084;2022-11-03T11:54:16;18.10;42.80
21682;DHT22;11002;48.256;10.084;2022-11-03T11:56:45;18.10;42.90
21682;DHT22;11002;48.256;10.084;2022-11-03T11:59:16;18.10;43.00
21682;DHT22;11002;48.256;10.084;2022-11-03T12:01:48;18.10;43.00
21682;DHT22;11002;48.256;10.084;2022-11-03T12:04:19;18.10;43.00
21682;DHT22;11002;48.256;10.084;2022-11-03T12:06:48;18.10;43.00
21682;DHT22;11002;48.256;10.084;2022-11-03T12:09:17;18.10;43.70
21682;DHT22;11002;48.256;10.084;2022-11-03T12:11:47;18.10;43.00
21682;DHT22;11002;48.256;10.084;2022-11-03T12:14:24;18.10;43.00
21682;DHT22;11002;48.256;10.084;2022-11-03T12:16:54;18.10;43.00
21682;DHT22;11002;48.256;10.084;2022-11-03T12:19:36;18.10;43.00
21682;DHT22;11002;48.256;10.084;2022-11-03T12:22:05;18.10;43.00
21682;DHT22;11002;48.256;10.084;2022-11-03T12:24:38;18.10;43.00
21682;DHT22;11002;48.256;10.084;2022-11-03T12:27:40;18.10;43.00
21682;DHT22;11002;48.256;10.084;2022-11-03T12:30:13;18.10;43.10
21682;DHT22;11002;48.256;10.084;2022-11-03T12:32:42;18.10;43.00
21682;DHT22;11002;48.256;10.084;2022-11-03T12:35:10;18.10;43.10
21682;DHT22;11002;48.256;10.084;2022-11-03T12:37:38;18.10;43.00
21682;DHT22;11002;48.256;10.084;2022-11-03T12:40:08;18.10;43.10
21682;DHT22;11002;48.256;10.084;2022-11-03T12:42:35;18.10;43.10
21682;DHT22;11002;48.256;10.084;2022-11-03T12:45:03;18.10;43.20
21682;DHT22;11002;48.256;10.084;2022-11-03T12:47:31;18.10;43.20
21682;DHT22;11002;48.256;10.084;2022-11-03T12:49:59;18.10;43.10
21682;DHT22;11002;48.256;10.084;2022-11-03T12:52:27;18.10;43.10
21682;DHT22;11002;48.256;10.084;2022-11-03T12:54:54;18.10;43.20
21682;DHT22;11002;48.256;10.084;2022-11-03T12:57:22;18.10;43.20
21682;DHT22;11002;48.256;10.084;2022-11-03T12:59:49;18.10;43.20
21682;DHT22;11002;48.256;10.084;2022-11-03T13:02:17;18.10;43.20
21682;DHT22;11002;48.256;10.084;2022-11-03T13:04:44;18.10;43.20
21682;DHT22;11002;48.256;10.084;2022-11-03T13:07:13;18.10;43.20
21682;DHT22;11002;48.256;10.084;2022-11-03T13:09:40;18.10;43.30
21682;DHT22;11002;48.256;10.084;2022-11-03T13:12:11;18.10;43.20
21682;DHT22;11002;48.256;10.084;2022-11-03T13:14:56;18.10;43.30
21682;DHT22;11002;48.256;10.084;2022-11-03T13:17:24;18.10;43.20
21682;DHT22;11002;48.256;10.084;2022-11-03T13:19:53;18.10;43.20
21682;DHT22;11002;48.256;10.084;2022-11-03T13:22:22;18.10;43.20
21682;DHT22;11002;48.256;10.084;2022-11-03T13:24:49;18.10;43.20
21682;DHT22;11002;48.256;10.084;2022-11-03T13:27:16;18.10;43.20
21682;DHT22;11002;48.256;10.084;2022-11-03T13:29:44;18.10;43.20
21682;DHT22;11002;48.256;10.084;2022-11-03T13:32:11;18.10;43.20
21682;DHT22;11002;48.256;10.084;2022-11-03T13:34:39;18.10;43.90
21682;DHT22;11002;48.256;10.084;2022-11-03T13:37:06;18.10;43.10
21682;DHT22;11002;48.256;10.084;2022-11-03T13:39:35;18.10;43.00
21682;DHT22;11002;48.256;10.084;2022-11-03T13:42:02;18.10;42.90
21682;DHT22;11002;48.256;10.084;2022-11-03T13:44:30;18.10;42.80
21682;DHT22;11002;48.256;10.084;2022-11-03T13:46:57;18.10;42.80
21682;DHT22;11002;48.256;10.084;2022-11-03T13:49:24;18.10;42.70
21682;DHT22;11002;48.256;10.084;2022-11-03T13:51:51;18.10;42.70
21682;DHT22;11002;48.256;10.084;2022-11-03T13:54:19;18.10;42.70
21682;DHT22;11002;48.256;10.084;2022-11-03T13:56:47;18.10;42.70
21682;DHT22;11002;48.256;10.084;2022-11-03T13:59:15;18.10;42.70
21682;DHT22;11002;48.256;10.084;2022-11-03T14:01:42;18.10;42.70
21682;DHT22;11002;48.256;10.084;2022-11-03T14:04:10;18.10;42.70
21682;DHT22;11002;48.256;10.084;2022-11-03T14:06:37;18.10;42.80
21682;DHT22;11002;48.256;10.084;2022-11-03T14:09:05;18.10;42.60
21682;DHT22;11002;48.256;10.084;2022-11-03T14:11:32;18.10;42.70
21682;DHT22;11002;48.256;10.084;2022-11-03T14:14:18;18.10;42.70
21682;DHT22;11002;48.256;10.084;2022-11-03T14:16:46;18.10;42.70
21682;DHT22;11002;48.256;10.084;2022-11-03T14:19:13;18.10;42.70
21682;DHT22;11002;48.256;10.084;2022-11-03T14:21:40;18.10;42.80
21682;DHT22;11002;48.256;10.084;2022-11-03T14:24:08;18.10;42.90
21682;DHT22;11002;48.256;10.084;2022-11-03T14:26:35;18.10;42.90
21682;DHT22;11002;48.256;10.084;2022-11-03T14:29:02;18.10;42.90
21682;DHT22;11002;48.256;10.084;2022-11-03T14:31:31;18.10;42.90
21682;DHT22;11002;48.256;10.084;2022-11-03T14:33:59;18.10;43.60
21682;DHT22;11002;48.256;10.084;2022-11-03T14:36:26;18.10;42.90
21682;DHT22;11002;48.256;10.084;2022-11-03T14:38:54;18.10;42.90
21682;DHT22;11002;48.256;10.084;2022-11-03T14:41:21;18.10;42.90
21682;DHT22;11002;48.256;10.084;2022-11-03T14:44:06;18.10;42.90
21682;DHT22;11002;48.256;10.084;2022-11-03T14:46:34;18.10;42.80
21682;DHT22;11002;48.256;10.084;2022-11-03T14:49:02;18.10;42.70
21682;DHT22;11002;48.256;10.084;2022-11-03T14:51:29;18.10;42.80
21682;DHT22;11002;48.256;10.084;2022-11-03T14:53:56;18.00;42.80
21682;DHT22;11002;48.256;10.084;2022-11-03T14:56:24;18.00;42.80
21682;DHT22;11002;48.256;10.084;2022-11-03T14:58:51;18.10;42.90
21682;DHT22;11002;48.256;10.084;2022-11-03T15:01:19;18.00;42.80
21682;DHT22;11002;48.256;10.084;2022-11-03T15:03:48;18.00;42.80
21682;DHT22;11002;48.256;10.084;2022-11-03T15:06:15;18.00;42.80
21682;DHT22;11002;48.256;10.084;2022-11-03T15:08:43;18.00;42.80
21682;DHT22;11002;48.256;10.084;2022-11-03T15:11:10;18.00;42.80
21682;DHT22;11002;48.256;10.084;2022-11-03T15:13:37;18.00;42.80
21682;DHT22;11002;48.256;10.084;2022-11-03T15:16:05;18.00;42.80
21682;DHT22;11002;48.256;10.084;2022-11-03T15:18:32;18.00;42.80
21682;DHT22;11002;48.256;10.084;2022-11-03T15:21:01;18.00;42.70
21682;DHT22;11002;48.256;10.084;2022-11-03T15:23:30;18.00;42.80
21682;DHT22;11002;48.256;10.084;2022-11-03T15:25:57;18.00;42.80
21682;DHT22;11002;48.256;10.084;2022-11-03T15:28:24;18.00;43.40
21682;DHT22;11002;48.256;10.084;2022-11-03T15:30:52;18.00;42.80
21682;DHT22;11002;48.256;10.084;2022-11-03T15:33:19;18.00;42.80
21682;DHT22;11002;48.256;10.084;2022-11-03T15:35:46;18.00;42.80
21682;DHT22;11002;48.256;10.084;2022-11-03T15:38:15;18.00;42.70
21682;DHT22;11002;48.256;10.084;2022-11-03T15:40:42;18.00;42.70
21682;DHT22;11002;48.256;10.084;2022-11-03T15:43:10;18.00;42.60
21682;DHT22;11002;48.256;10.084;2022-11-03T15:45:38;18.00;42.70
21682;DHT22;11002;48.256;10.084;2022-11-03T15:48:06;18.00;42.60
21682;DHT22;11002;48.256;10.084;2022-11-03T15:50:33;18.00;42.60